Hauptseite
METAR-TAF:

METAR-TAF

Flughäfen :

Flughafen Pembrey

Pembrey, Wales

Breite: 51-43N, Länge: 004-22W, Höhe: 3 m

Beobachtung

Neuester Wetterbericht von vor 10 Stunden und 21 Minuten, um 10:50 UTC
Wind 15 kt aus Nordwest
Temperatur 6°C
Luftfeuchtigkeit 93%
Luftdruck 1005 hPa
Sichtweite 10 km oder mehr
Durchbrochene Bewölkung in der Höhe von 3400 ft
Regen

METAR: EGOP 161050Z 32015KT 9999 RA BKN034 06/05 Q1005 BLU

Zeit: 21:11 (21:11 UTC)


TAF: fehlend

Wetterbeobachtungen und Prognosen von mehr als 4000 Flughäfen (METAR und TAF Bericht).

Die verfügbaren Stationen werden durch gelbe und rote Markierungen auf der Karte dargestellt.

Führen Sie die Maus auf sie, um den Namen der Station zu sehen.

Darauf klicken, um die Beobachtung von Wetterbeobachtungen und Prognosen zu sehen.

Um die Karte zu ändern : klicken Sie auf den grünen Tasten mit einem schwarzen Kreuz Zum Vergrößern, auf den grünen Button mit einem Gedankenstrich zu verkleinern, oder auf die grünen Pfeile für benachbarte Karten.


METAR-TAF: